VLG415M EGKK-LEAL
Flight info
| Callsign | VLG415M |
|---|---|
| Flight time | N/A |
| Altitude | 35000 |
| Route | SFD Y47 BENBO UY47 DRAKE L151 SITET UN859 SOPIL DCT BALAN DCT LMG DCT PIMQO DCT AGN DCT ANETO DCT POSSY DCT XIMPE DCT RIMES N860 VLC |
| Aircraft | A320/M-SDE3FGHIRWY/LB1 |
Departure
| Time | N/A |
|---|---|
| Airport | London Gatwick Airport (EGKK) |
Arrival
| Time | 2026-05-05 15:46 |
|---|---|
| Airport | Alicante-Elche Miguel Hernández Airport (LEAL) |
| Time | Latitude | Longitude | Altitude | Speed | Heading |
|---|---|---|---|---|---|
| 2026-05-05 15:07 | 42.10985 | 0.18788 | 30009 ft | 480 kts | 205° |
| 2026-05-05 15:08 | 42.05213 | 0.15782 | 30132 ft | 477 kts | 193° |
| 2026-05-05 15:08 | 42.01946 | 0.15092 | 30258 ft | 475 kts | 186° |
| 2026-05-05 15:08 | 41.98671 | 0.14599 | 30382 ft | 472 kts | 186° |
| 2026-05-05 15:08 | 41.95413 | 0.14109 | 30505 ft | 470 kts | 186° |
| 2026-05-05 15:09 | 41.92170 | 0.13626 | 30628 ft | 468 kts | 186° |
| 2026-05-05 15:09 | 41.88945 | 0.13143 | 30752 ft | 466 kts | 186° |
| 2026-05-05 15:09 | 41.85729 | 0.12656 | 30876 ft | 464 kts | 186° |
| 2026-05-05 15:09 | 41.82528 | 0.12173 | 31000 ft | 462 kts | 186° |
| 2026-05-05 15:10 | 41.79340 | 0.11696 | 31124 ft | 460 kts | 186° |
| 2026-05-05 15:10 | 41.76161 | 0.11223 | 31248 ft | 459 kts | 186° |
| 2026-05-05 15:10 | 41.72994 | 0.10749 | 31372 ft | 457 kts | 186° |
| 2026-05-05 15:10 | 41.69838 | 0.10276 | 31496 ft | 456 kts | 186° |
| 2026-05-05 15:11 | 41.66693 | 0.09807 | 31620 ft | 454 kts | 186° |
| 2026-05-05 15:11 | 41.63559 | 0.09343 | 31744 ft | 453 kts | 186° |
| 2026-05-05 15:11 | 41.60433 | 0.08883 | 31889 ft | 451 kts | 186° |
| 2026-05-05 15:11 | 41.57362 | 0.08433 | 31992 ft | 450 kts | 186° |
| 2026-05-05 15:12 | 41.54203 | 0.07971 | 32011 ft | 451 kts | 186° |
| 2026-05-05 15:12 | 41.47980 | 0.07055 | 32009 ft | 455 kts | 186° |
| 2026-05-05 15:13 | 41.41672 | 0.06121 | 32009 ft | 458 kts | 186° |
| 2026-05-05 15:13 | 41.35324 | 0.05182 | 32010 ft | 460 kts | 186° |
| 2026-05-05 15:14 | 41.28938 | 0.04243 | 32009 ft | 463 kts | 186° |
| 2026-05-05 15:14 | 41.22520 | 0.03305 | 32009 ft | 465 kts | 186° |
| 2026-05-05 15:15 | 41.16075 | 0.02356 | 32009 ft | 467 kts | 186° |
| 2026-05-05 15:15 | 41.09609 | 0.01417 | 32009 ft | 468 kts | 186° |
| 2026-05-05 15:16 | 41.03117 | 0.00474 | 32009 ft | 470 kts | 186° |
| 2026-05-05 15:16 | 40.96609 | -0.00481 | 32009 ft | 471 kts | 186° |
| 2026-05-05 15:17 | 40.90091 | -0.01436 | 32009 ft | 472 kts | 186° |
| 2026-05-05 15:17 | 40.84657 | -0.02223 | 32009 ft | 473 kts | 186° |
| 2026-05-05 15:18 | 40.78111 | -0.03166 | 32009 ft | 474 kts | 186° |
| 2026-05-05 15:18 | 40.71553 | -0.04111 | 32009 ft | 474 kts | 186° |
| 2026-05-05 15:19 | 40.64983 | -0.05066 | 32009 ft | 475 kts | 186° |
| 2026-05-05 15:19 | 40.58411 | -0.06017 | 32009 ft | 476 kts | 186° |
| 2026-05-05 15:20 | 40.51972 | -0.07905 | 32012 ft | 475 kts | 197° |
| 2026-05-05 15:20 | 40.45807 | -0.10354 | 32009 ft | 476 kts | 197° |
| 2026-05-05 15:21 | 40.39462 | -0.12866 | 32009 ft | 476 kts | 197° |
| 2026-05-05 15:21 | 40.33110 | -0.15369 | 32009 ft | 477 kts | 197° |
| 2026-05-05 15:22 | 40.26753 | -0.17868 | 32009 ft | 477 kts | 197° |
| 2026-05-05 15:22 | 40.20394 | -0.20367 | 32016 ft | 477 kts | 197° |
| 2026-05-05 15:22 | 40.17268 | -0.21599 | 32133 ft | 474 kts | 197° |
| 2026-05-05 15:23 | 40.14067 | -0.22860 | 32048 ft | 477 kts | 197° |
| 2026-05-05 15:23 | 40.07741 | -0.25340 | 32010 ft | 478 kts | 197° |
| 2026-05-05 15:24 | 40.01330 | -0.27845 | 32009 ft | 478 kts | 197° |
| 2026-05-05 15:24 | 39.95001 | -0.30312 | 32009 ft | 478 kts | 197° |
| 2026-05-05 15:25 | 39.88630 | -0.32791 | 32009 ft | 478 kts | 197° |
| 2026-05-05 15:25 | 39.82243 | -0.35275 | 31731 ft | 480 kts | 197° |
| 2026-05-05 15:25 | 39.79046 | -0.36518 | 31481 ft | 479 kts | 197° |
| 2026-05-05 15:26 | 39.75854 | -0.37758 | 31231 ft | 477 kts | 197° |
| 2026-05-05 15:26 | 39.72677 | -0.38992 | 30980 ft | 475 kts | 197° |
| 2026-05-05 15:26 | 39.69518 | -0.40216 | 30731 ft | 473 kts | 197° |
| 2026-05-05 15:26 | 39.66381 | -0.41426 | 30306 ft | 467 kts | 197° |
| 2026-05-05 15:27 | 39.63282 | -0.42621 | 29723 ft | 463 kts | 197° |
| 2026-05-05 15:27 | 39.60202 | -0.43810 | 29162 ft | 459 kts | 197° |
| 2026-05-05 15:27 | 39.57159 | -0.44983 | 28606 ft | 455 kts | 197° |
| 2026-05-05 15:27 | 39.54139 | -0.46149 | 28064 ft | 451 kts | 197° |
| 2026-05-05 15:28 | 39.51145 | -0.47306 | 27557 ft | 446 kts | 197° |
| 2026-05-05 15:28 | 39.48192 | -0.48448 | 27121 ft | 441 kts | 197° |
| 2026-05-05 15:28 | 39.45249 | -0.49550 | 26969 ft | 439 kts | 196° |
| 2026-05-05 15:28 | 39.42306 | -0.50604 | 27012 ft | 440 kts | 195° |
| 2026-05-05 15:29 | 39.39353 | -0.51636 | 27008 ft | 440 kts | 195° |
| 2026-05-05 15:29 | 39.36398 | -0.52659 | 27009 ft | 440 kts | 195° |
| 2026-05-05 15:29 | 39.33445 | -0.53686 | 27009 ft | 440 kts | 195° |
| 2026-05-05 15:29 | 39.30495 | -0.54720 | 26525 ft | 440 kts | 195° |
| 2026-05-05 15:30 | 39.27511 | -0.55776 | 25478 ft | 448 kts | 195° |
| 2026-05-05 15:30 | 39.24507 | -0.56846 | 24741 ft | 447 kts | 195° |
| 2026-05-05 15:30 | 39.21520 | -0.57912 | 24120 ft | 443 kts | 195° |
| 2026-05-05 15:30 | 39.18560 | -0.58968 | 23540 ft | 439 kts | 195° |
| 2026-05-05 15:31 | 39.15633 | -0.60011 | 22986 ft | 435 kts | 195° |
| 2026-05-05 15:31 | 39.12731 | -0.61044 | 22448 ft | 430 kts | 195° |
| 2026-05-05 15:31 | 39.09860 | -0.62064 | 21931 ft | 426 kts | 195° |
| 2026-05-05 15:31 | 39.07013 | -0.63072 | 21432 ft | 423 kts | 195° |
| 2026-05-05 15:32 | 39.04190 | -0.64069 | 20944 ft | 419 kts | 195° |
| 2026-05-05 15:32 | 39.01390 | -0.65055 | 20451 ft | 415 kts | 195° |
| 2026-05-05 15:32 | 38.98620 | -0.66030 | 19956 ft | 411 kts | 195° |
| 2026-05-05 15:32 | 38.95873 | -0.66999 | 19449 ft | 407 kts | 195° |
| 2026-05-05 15:33 | 38.93152 | -0.67958 | 18930 ft | 402 kts | 195° |
| 2026-05-05 15:33 | 38.90487 | -0.68896 | 17996 ft | 394 kts | 195° |
| 2026-05-05 15:33 | 38.87893 | -0.69808 | 17033 ft | 388 kts | 195° |
| 2026-05-05 15:33 | 38.85278 | -0.70730 | 16060 ft | 382 kts | 195° |
| 2026-05-05 15:34 | 38.82737 | -0.71622 | 15136 ft | 376 kts | 195° |
| 2026-05-05 15:34 | 38.80219 | -0.72504 | 14650 ft | 372 kts | 195° |
| 2026-05-05 15:34 | 38.77767 | -0.73363 | 14170 ft | 368 kts | 196° |
| 2026-05-05 15:34 | 38.75430 | -0.74535 | 13954 ft | 356 kts | 205° |
| 2026-05-05 15:35 | 38.73204 | -0.75884 | 13515 ft | 352 kts | 205° |
| 2026-05-05 15:35 | 38.70996 | -0.77216 | 13051 ft | 349 kts | 205° |
| 2026-05-05 15:35 | 38.68809 | -0.78535 | 12594 ft | 346 kts | 205° |
| 2026-05-05 15:35 | 38.66638 | -0.79844 | 12138 ft | 343 kts | 205° |
| 2026-05-05 15:36 | 38.64486 | -0.81143 | 11686 ft | 341 kts | 205° |
| 2026-05-05 15:36 | 38.62352 | -0.82432 | 11239 ft | 338 kts | 205° |
| 2026-05-05 15:36 | 38.60237 | -0.83711 | 10796 ft | 335 kts | 205° |
| 2026-05-05 15:36 | 38.58136 | -0.84980 | 10356 ft | 333 kts | 205° |
| 2026-05-05 15:37 | 38.56071 | -0.86226 | 10177 ft | 322 kts | 205° |
| 2026-05-05 15:37 | 38.54086 | -0.87427 | 10048 ft | 311 kts | 205° |
| 2026-05-05 15:37 | 38.52163 | -0.88590 | 9894 ft | 302 kts | 205° |
| 2026-05-05 15:37 | 38.50275 | -0.89728 | 9526 ft | 301 kts | 205° |
| 2026-05-05 15:38 | 38.48396 | -0.90860 | 9233 ft | 297 kts | 205° |
| 2026-05-05 15:38 | 38.46521 | -0.91987 | 8847 ft | 296 kts | 205° |
| 2026-05-05 15:38 | 38.44674 | -0.93096 | 8402 ft | 291 kts | 205° |
| 2026-05-05 15:38 | 38.42861 | -0.94185 | 7913 ft | 284 kts | 205° |
| 2026-05-05 15:39 | 38.41102 | -0.95238 | 7527 ft | 274 kts | 205° |
| 2026-05-05 15:39 | 38.39389 | -0.96209 | 7164 ft | 265 kts | 202° |
| 2026-05-05 15:39 | 38.37711 | -0.97000 | 6998 ft | 248 kts | 195° |
| 2026-05-05 15:39 | 38.36040 | -0.97310 | 6650 ft | 243 kts | 174° |
| 2026-05-05 15:40 | 38.34517 | -0.96591 | 6307 ft | 239 kts | 140° |
| 2026-05-05 15:40 | 38.33599 | -0.94846 | 5928 ft | 240 kts | 106° |
| 2026-05-05 15:40 | 38.33268 | -0.92787 | 5578 ft | 241 kts | 99° |
| 2026-05-05 15:40 | 38.33012 | -0.90686 | 5250 ft | 240 kts | 99° |
| 2026-05-05 15:41 | 38.32737 | -0.88599 | 4935 ft | 239 kts | 100° |
| 2026-05-05 15:41 | 38.32453 | -0.86519 | 4619 ft | 238 kts | 100° |
| 2026-05-05 15:41 | 38.32168 | -0.84439 | 4302 ft | 238 kts | 100° |
| 2026-05-05 15:41 | 38.31888 | -0.82389 | 3985 ft | 230 kts | 100° |
| 2026-05-05 15:42 | 38.31619 | -0.80427 | 3686 ft | 216 kts | 100° |
| 2026-05-05 15:42 | 38.31369 | -0.78607 | 3410 ft | 203 kts | 101° |
| 2026-05-05 15:42 | 38.31130 | -0.76863 | 3154 ft | 198 kts | 101° |
| 2026-05-05 15:42 | 38.30894 | -0.75153 | 2888 ft | 195 kts | 100° |
| 2026-05-05 15:43 | 38.30661 | -0.73459 | 2631 ft | 193 kts | 101° |
| 2026-05-05 15:43 | 38.30429 | -0.71778 | 2376 ft | 192 kts | 101° |
| 2026-05-05 15:43 | 38.30199 | -0.70109 | 2159 ft | 191 kts | 101° |
| 2026-05-05 15:43 | 38.29969 | -0.68444 | 1872 ft | 190 kts | 101° |
| 2026-05-05 15:44 | 38.29742 | -0.66803 | 1637 ft | 186 kts | 101° |
| 2026-05-05 15:44 | 38.29525 | -0.65228 | 1373 ft | 170 kts | 101° |
| 2026-05-05 15:44 | 38.29330 | -0.63823 | 1157 ft | 155 kts | 101° |
| 2026-05-05 15:44 | 38.29146 | -0.62497 | 952 ft | 150 kts | 101° |
| 2026-05-05 15:45 | 38.28967 | -0.61206 | 741 ft | 147 kts | 101° |
| 2026-05-05 15:45 | 38.28789 | -0.59926 | 559 ft | 147 kts | 101° |
| 2026-05-05 15:45 | 38.28613 | -0.58652 | 345 ft | 145 kts | 101° |
| 2026-05-05 15:45 | 38.28438 | -0.57385 | 178 ft | 145 kts | 101° |
| 2026-05-05 15:46 | 38.28274 | -0.56265 | 116 ft | 96 kts | 100° |
| 2026-05-05 15:46 | 38.28208 | -0.55784 | 100 ft | 29 kts | 99° |
| 2026-05-05 15:46 | 38.28226 | -0.55600 | 93 ft | 24 kts | 71° |
| 2026-05-05 15:46 | 38.28273 | -0.55444 | 89 ft | 18 kts | 68° |
| 2026-05-05 15:47 | 38.28314 | -0.55304 | 86 ft | 17 kts | 69° |
| 2026-05-05 15:47 | 38.28358 | -0.55212 | 85 ft | 17 kts | 53° |
| 2026-05-05 15:47 | 38.28418 | -0.55091 | 88 ft | 12 kts | 74° |
| 2026-05-05 15:47 | 38.28430 | -0.54999 | 86 ft | 9 kts | 47° |
| 2026-05-05 15:48 | 38.28493 | -0.54973 | 86 ft | 7 kts | 3° |
| 2026-05-05 15:48 | 38.28546 | -0.54962 | 86 ft | 9 kts | 8° |
| 2026-05-05 15:48 | 38.28608 | -0.54948 | 87 ft | 5 kts | 11° |
| 2026-05-05 15:48 | 38.28632 | -0.54961 | 88 ft | 3 kts | 314° |
| 2026-05-05 15:49 | 38.28638 | -0.54980 | 89 ft | 2 kts | 286° |
| 2026-05-05 15:49 | 38.28642 | -0.55003 | 91 ft | 4 kts | 281° |
| 2026-05-05 15:49 | 38.28645 | -0.55024 | 92 ft | 1 kts | 279° |
| 2026-05-05 15:49 | 38.28645 | -0.55026 | 92 ft | 0 kts | 279° |